createdAt,value
2022-11-25T00:04:43.207Z,92.04
2022-11-25T00:10:45.988Z,92.24
2022-11-25T00:16:48.710Z,92.17
2022-11-25T00:23:03.785Z,92.20
2022-11-25T00:35:23.823Z,92.12
2022-11-25T00:41:58.145Z,92.28
2022-11-25T00:54:22.392Z,92.36
2022-11-25T01:00:27.544Z,92.51
2022-11-25T01:06:29.596Z,92.10
2022-11-25T01:12:56.424Z,92.69
2022-11-25T01:19:01.548Z,91.99
2022-11-25T01:25:09.857Z,92.18
2022-11-25T01:44:22.209Z,92.49
2022-11-25T01:50:47.628Z,92.37
2022-11-25T02:03:47.734Z,92.56
2022-11-25T02:16:29.490Z,92.59
2022-11-25T02:23:19.889Z,92.38
2022-11-25T02:36:08.264Z,92.43
2022-11-25T02:49:08.387Z,92.55
2022-11-25T03:01:38.701Z,91.93
2022-11-25T03:07:53.976Z,92.09
2022-11-25T03:14:00.523Z,92.20
2022-11-25T03:20:02.737Z,91.95
2022-11-25T03:26:09.845Z,92.03
2022-11-25T03:32:14.976Z,91.89
2022-11-25T03:38:21.284Z,91.79
2022-11-25T03:50:45.293Z,91.93
2022-11-25T03:56:52.020Z,91.99
2022-11-25T04:02:54.640Z,91.94
2022-11-25T04:22:36.875Z,92.07
2022-11-25T04:28:44.559Z,91.80
2022-11-25T04:34:48.934Z,91.93
2022-11-25T04:40:54.689Z,92.13
2022-11-25T04:47:07.836Z,91.55
2022-11-25T04:53:11.216Z,91.66
2022-11-25T04:59:32.000Z,91.64
2022-11-25T05:05:39.672Z,91.53
2022-11-25T05:11:42.351Z,91.51
2022-11-25T05:17:44.330Z,91.54
2022-11-25T05:23:54.435Z,91.17
2022-11-25T05:30:03.006Z,90.97
2022-11-25T05:42:22.205Z,90.96
2022-11-25T05:48:40.642Z,90.78
2022-11-25T05:54:43.417Z,91.07
2022-11-25T06:00:45.238Z,91.09
2022-11-25T06:06:47.149Z,90.87
2022-11-25T06:12:48.938Z,90.63
2022-11-25T06:18:50.983Z,90.45
2022-11-25T06:25:01.918Z,90.21
2022-11-25T06:31:13.579Z,89.95
2022-11-25T06:37:21.291Z,90.30
2022-11-25T06:43:28.783Z,89.88
2022-11-25T06:49:30.631Z,89.79
2022-11-25T06:55:33.103Z,89.06
2022-11-25T07:01:39.756Z,89.71
2022-11-25T07:07:41.686Z,89.15
2022-11-25T07:13:43.632Z,88.65
2022-11-25T07:19:45.934Z,88.84
2022-11-25T07:25:47.701Z,88.44
2022-11-25T07:31:49.486Z,87.99
2022-11-25T07:37:51.298Z,88.25
2022-11-25T07:43:55.951Z,88.08
2022-11-25T07:49:58.001Z,87.96
2022-11-25T07:56:03.252Z,87.95
2022-11-25T08:02:05.054Z,87.40
2022-11-25T08:08:06.949Z,87.25
2022-11-25T08:14:10.483Z,86.72
2022-11-25T08:20:12.618Z,85.79
2022-11-25T08:26:22.370Z,86.25
2022-11-25T08:32:24.072Z,86.55
2022-11-25T08:38:26.831Z,85.84
2022-11-25T08:44:30.196Z,85.29
2022-11-25T08:50:32.740Z,85.26
2022-11-25T08:56:35.020Z,85.80
2022-11-25T09:02:37.044Z,85.19
2022-11-25T09:08:40.571Z,85.48
2022-11-25T09:14:42.448Z,85.04
2022-11-25T09:20:44.217Z,85.03
2022-11-25T09:26:46.551Z,84.78
2022-11-25T09:32:54.557Z,84.27
2022-11-25T09:38:56.543Z,84.77
2022-11-25T09:45:24.930Z,84.84
2022-11-25T09:51:41.881Z,84.89
2022-11-25T09:57:43.643Z,84.64
2022-11-25T10:03:53.507Z,84.08
2022-11-25T10:09:56.971Z,83.65
2022-11-25T10:16:04.432Z,83.67
2022-11-25T10:22:37.652Z,84.16
2022-11-25T10:28:41.528Z,84.02
2022-11-25T10:34:48.789Z,83.40
2022-11-25T10:40:51.832Z,83.90
2022-11-25T10:47:21.874Z,83.65
2022-11-25T10:53:27.026Z,83.45
2022-11-25T10:59:39.848Z,83.14
2022-11-25T11:05:55.750Z,83.69
2022-11-25T11:11:57.596Z,83.23
2022-11-25T11:18:14.765Z,83.32
2022-11-25T11:24:38.245Z,82.98
2022-11-25T11:30:56.888Z,83.30
2022-11-25T11:37:18.662Z,83.39
2022-11-25T11:44:01.986Z,82.66
2022-11-25T11:50:25.110Z,82.22
2022-11-25T11:56:38.908Z,82.28
2022-11-25T12:03:24.062Z,81.17
2022-11-25T12:09:29.747Z,82.27
2022-11-25T12:15:41.694Z,81.71
2022-11-25T12:22:00.587Z,81.08
2022-11-25T12:28:15.663Z,81.53
2022-11-25T12:34:34.005Z,81.11
2022-11-25T12:40:50.150Z,81.94
2022-11-25T12:46:55.387Z,81.44
2022-11-25T12:53:14.406Z,82.75
2022-11-25T13:12:51.036Z,82.29
2022-11-25T13:18:58.615Z,82.75
2022-11-25T13:25:00.949Z,82.18
2022-11-25T13:31:15.409Z,82.09
2022-11-25T13:37:42.128Z,82.29
2022-11-25T13:44:05.186Z,82.90
2022-11-25T13:50:21.815Z,82.89
2022-11-25T13:56:35.938Z,82.54
2022-11-25T14:02:46.104Z,82.79
2022-11-25T14:08:57.019Z,82.66
2022-11-25T14:15:30.221Z,83.33
2022-11-25T14:22:11.455Z,83.38
2022-11-25T14:28:18.501Z,83.31
2022-11-25T14:34:49.378Z,83.04
2022-11-25T14:41:33.214Z,82.76
2022-11-25T14:47:39.160Z,83.06
2022-11-25T14:53:51.596Z,83.23
2022-11-25T14:59:58.702Z,83.34
2022-11-25T15:06:21.191Z,83.43
2022-11-25T15:12:27.201Z,83.20
2022-11-25T15:18:29.208Z,83.59
2022-11-25T15:24:55.102Z,83.93
2022-11-25T16:04:36.035Z,84.41
2022-11-25T20:03:57.622Z,84.60
2022-11-25T20:35:43.973Z,84.73
2022-11-25T21:26:28.140Z,84.81
2022-11-25T21:32:29.907Z,84.83
2022-11-25T21:38:33.955Z,85.29
2022-11-25T21:44:39.714Z,85.26
2022-11-25T21:57:18.410Z,85.53
2022-11-25T22:16:57.071Z,85.86
2022-11-25T23:16:51.357Z,84.63
